Time;durP1;ratioP1;P1;durP2;ratioP2;P2;SDS_P1;SDS_P2;PMS_P1;PMS_P2;Temp;Humidity;BMP_temperature;BMP_pressure;BME280_temperature;BME280_humidity;BME280_pressure;Samples;Min_cycle;Max_cycle;Signal;HPM_P1;HPM_P2
2023/08/20 00:01:16;;;;;;;4.22;1.67;;;17.00;99.90;;;;;;4946901;28;20178;-83
2023/08/20 00:03:43;;;;;;;3.92;1.83;;;17.00;99.90;;;;;;4961984;28;20530;-83
2023/08/20 00:06:09;;;;;;;4.22;2.10;;;16.90;99.90;;;;;;4964632;28;20049;-82
2023/08/20 00:08:35;;;;;;;2.17;1.60;;;16.80;99.90;;;;;;4961429;28;20035;-82
2023/08/20 00:11:02;;;;;;;4.03;2.17;;;16.80;99.90;;;;;;4961382;28;20102;-83
2023/08/20 00:13:28;;;;;;;2.92;1.88;;;16.90;99.90;;;;;;4949621;28;20503;-83
2023/08/20 00:15:54;;;;;;;4.60;2.67;;;16.90;99.90;;;;;;4957049;28;20031;-83
2023/08/20 00:18:20;;;;;;;3.92;2.30;;;16.80;99.90;;;;;;4960803;28;20158;-83
2023/08/20 00:20:46;;;;;;;4.85;1.92;;;16.70;99.90;;;;;;4951004;28;20035;-83
2023/08/20 00:23:12;;;;;;;5.07;2.28;;;16.70;99.90;;;;;;4963750;28;20392;-84
2023/08/20 00:25:38;;;;;;;2.92;2.03;;;16.60;99.90;;;;;;4955185;28;20034;-83
2023/08/20 00:28:04;;;;;;;3.75;2.20;;;16.60;99.90;;;;;;4955693;28;20019;-83
2023/08/20 00:30:30;;;;;;;2.97;2.05;;;16.60;99.90;;;;;;4965609;28;20062;-83
2023/08/20 00:32:55;;;;;;;4.70;1.38;;;16.60;99.90;;;;;;4963425;28;20062;-83
2023/08/20 00:35:21;;;;;;;2.28;1.55;;;16.80;99.90;;;;;;4963957;28;20122;-84
2023/08/20 00:37:48;;;;;;;3.38;2.00;;;16.80;99.90;;;;;;4962183;28;20023;-83
2023/08/20 00:40:14;;;;;;;3.58;1.88;;;16.90;99.90;;;;;;4962730;28;20077;-83
2023/08/20 00:42:39;;;;;;;3.75;1.52;;;17.00;99.90;;;;;;4958750;28;20042;-84
2023/08/20 00:45:07;;;;;;;3.92;2.40;;;17.10;99.90;;;;;;4962253;28;20041;-83
2023/08/20 00:47:34;;;;;;;6.35;2.17;;;17.20;99.90;;;;;;4962480;28;20494;-84
2023/08/20 00:50:00;;;;;;;4.10;1.75;;;17.20;99.90;;;;;;4946217;28;20078;-84
2023/08/20 00:52:25;;;;;;;4.43;2.03;;;17.30;99.90;;;;;;4962344;28;20424;-83
2023/08/20 00:54:51;;;;;;;3.20;2.17;;;17.20;99.90;;;;;;4961619;28;20031;-83
2023/08/20 00:57:19;;;;;;;3.45;2.50;;;17.10;99.90;;;;;;4960502;28;20078;-83
2023/08/20 00:59:48;;;;;;;2.92;2.20;;;17.10;99.90;;;;;;4942685;28;20023;-83
2023/08/20 01:02:14;;;;;;;4.25;2.13;;;17.10;99.90;;;;;;4942463;28;20401;-83
2023/08/20 01:04:40;;;;;;;4.10;1.83;;;17.00;99.90;;;;;;4941877;28;20411;-82
2023/08/20 01:07:29;;;;;;;3.35;1.80;;;17.10;99.90;;;;;;4960306;28;20522;-83
2023/08/20 01:10:19;;;;;;;4.63;1.83;;;17.10;99.90;;;;;;4963297;28;20443;-82
2023/08/20 01:12:46;;;;;;;2.92;1.52;;;16.90;99.90;;;;;;4957314;28;20436;-83
2023/08/20 01:15:13;;;;;;;2.45;1.30;;;17.00;99.90;;;;;;4964531;28;20034;-83
2023/08/20 01:17:43;;;;;;;2.95;1.33;;;17.00;99.90;;;;;;4949270;28;20027;-83
2023/08/20 01:20:16;;;;;;;3.85;1.35;;;17.10;99.90;;;;;;4962263;28;20066;-83
2023/08/20 01:23:05;;;;;;;3.10;1.40;;;17.10;99.90;;;;;;4946586;28;20468;-83
2023/08/20 01:25:52;;;;;;;5.47;2.05;;;16.90;99.90;;;;;;4963442;28;20270;-83
2023/08/20 01:28:28;;;;;;;3.30;1.35;;;16.80;99.90;;;;;;4945970;28;20055;-83
2023/08/20 01:31:00;;;;;;;2.67;1.52;;;16.80;99.90;;;;;;4949808;28;20039;-84
2023/08/20 01:33:27;;;;;;;2.28;1.00;;;16.80;99.90;;;;;;4970785;28;20030;-83
2023/08/20 01:35:54;;;;;;;5.07;1.65;;;16.70;99.90;;;;;;4961721;28;20050;-83
2023/08/20 01:38:20;;;;;;;3.97;1.60;;;16.80;99.90;;;;;;4955239;28;20027;-83
2023/08/20 01:40:46;;;;;;;2.17;1.23;;;16.80;99.90;;;;;;4947305;28;20130;-83
2023/08/20 01:43:12;;;;;;;2.42;1.25;;;16.90;99.90;;;;;;4959108;28;20034;-83
2023/08/20 01:45:38;;;;;;;3.55;1.52;;;17.00;99.90;;;;;;4961338;28;20035;-83
2023/08/20 01:48:04;;;;;;;2.42;1.10;;;17.10;99.90;;;;;;4966024;28;20031;-83
2023/08/20 01:50:30;;;;;;;4.55;1.67;;;17.10;99.90;;;;;;4958481;28;20030;-83
2023/08/20 01:52:56;;;;;;;3.15;1.63;;;17.20;99.90;;;;;;4957415;28;20039;-83
2023/08/20 01:55:22;;;;;;;3.10;1.30;;;17.20;99.90;;;;;;4945818;28;20074;-83
2023/08/20 01:57:48;;;;;;;1.85;1.35;;;17.20;99.90;;;;;;4964817;28;20023;-83
2023/08/20 02:00:14;;;;;;;4.20;1.35;;;17.20;99.90;;;;;;4944610;28;20027;-83
2023/08/20 02:02:40;;;;;;;3.10;1.58;;;17.30;99.90;;;;;;4953075;28;20074;-83
2023/08/20 02:05:06;;;;;;;1.98;1.30;;;17.30;99.90;;;;;;4943329;28;20039;-82
2023/08/20 02:07:32;;;;;;;3.08;1.00;;;17.30;99.90;;;;;;4961875;28;20027;-83
2023/08/20 02:09:59;;;;;;;2.10;1.23;;;17.40;99.90;;;;;;4947140;28;20082;-83
2023/08/20 02:12:26;;;;;;;2.10;1.25;;;17.40;99.90;;;;;;4943277;28;20056;-83
2023/08/20 02:14:52;;;;;;;3.22;1.15;;;17.40;99.90;;;;;;4962824;28;20061;-82
2023/08/20 02:17:21;;;;;;;2.30;0.93;;;17.40;99.90;;;;;;4945140;28;20023;-83
2023/08/20 02:19:48;;;;;;;3.92;1.15;;;17.30;99.90;;;;;;4962296;28;20564;-83
2023/08/20 02:22:13;;;;;;;2.55;1.08;;;17.30;99.90;;;;;;4961258;28;20114;-83
2023/08/20 02:24:39;;;;;;;2.47;0.85;;;17.40;99.90;;;;;;4953546;28;20028;-83
2023/08/20 02:27:05;;;;;;;3.50;1.27;;;17.50;99.90;;;;;;4957590;28;20043;-84
2023/08/20 02:29:30;;;;;;;2.55;0.80;;;17.50;99.90;;;;;;4955412;28;20062;-83
2023/08/20 02:31:56;;;;;;;2.50;1.10;;;17.50;99.90;;;;;;4959009;28;20031;-83
2023/08/20 02:34:22;;;;;;;4.18;1.33;;;17.50;99.90;;;;;;4964348;28;20038;-83
2023/08/20 02:36:48;;;;;;;2.75;1.02;;;17.50;99.90;;;;;;4963008;28;20023;-83
2023/08/20 02:39:14;;;;;;;4.13;1.20;;;17.50;99.90;;;;;;4960414;28;20138;-82
2023/08/20 02:41:41;;;;;;;1.92;0.93;;;17.50;99.90;;;;;;4961941;28;20459;-83
2023/08/20 02:44:08;;;;;;;2.88;1.27;;;17.50;99.90;;;;;;4942789;28;20039;-82
2023/08/20 02:46:34;;;;;;;2.30;1.13;;;17.50;99.90;;;;;;4943794;28;20062;-83
2023/08/20 02:49:00;;;;;;;4.53;1.30;;;17.50;99.90;;;;;;4944548;28;20472;-83
2023/08/20 02:51:27;;;;;;;2.17;0.88;;;17.60;99.90;;;;;;4955643;28;20519;-82
2023/08/20 02:53:53;;;;;;;2.92;1.25;;;17.50;99.90;;;;;;4945035;29;20496;-83
2023/08/20 02:56:19;;;;;;;4.28;1.50;;;17.50;99.90;;;;;;4955150;28;20065;-83
2023/08/20 02:58:45;;;;;;;4.25;1.70;;;17.40;99.90;;;;;;4941406;28;20053;-83
2023/08/20 03:01:25;;;;;;;3.95;2.55;;;17.40;99.90;;;;;;4947915;28;20035;-83
2023/08/20 03:03:52;;;;;;;6.55;1.75;;;17.30;99.90;;;;;;4958344;28;20294;-82
2023/08/20 03:06:18;;;;;;;3.80;1.50;;;17.20;99.90;;;;;;4960443;28;20293;-83
2023/08/20 03:08:44;;;;;;;3.25;1.20;;;17.20;99.90;;;;;;4961620;28;20414;-83
2023/08/20 03:11:10;;;;;;;3.03;1.35;;;17.20;99.90;;;;;;4948511;28;20057;-83
2023/08/20 03:13:36;;;;;;;2.42;1.50;;;17.10;99.90;;;;;;4950687;28;20053;-83
2023/08/20 03:16:03;;;;;;;2.78;1.17;;;17.10;99.90;;;;;;4956562;28;20070;-83
2023/08/20 03:18:29;;;;;;;2.83;1.33;;;17.00;99.90;;;;;;4943171;28;20475;-83
2023/08/20 03:20:56;;;;;;;4.90;1.50;;;16.90;99.90;;;;;;4954029;28;20526;-83
2023/08/20 03:23:22;;;;;;;3.15;1.17;;;16.90;99.90;;;;;;4948129;28;20510;-83
2023/08/20 03:25:47;;;;;;;3.03;1.52;;;16.90;99.90;;;;;;4949181;28;20039;-83
2023/08/20 03:28:13;;;;;;;4.25;1.50;;;16.80;99.90;;;;;;4966105;28;20034;-83
2023/08/20 03:30:39;;;;;;;3.05;1.45;;;16.80;99.90;;;;;;4947943;28;20054;-83
2023/08/20 03:33:05;;;;;;;4.65;1.30;;;16.80;99.90;;;;;;4959813;28;20454;-84
2023/08/20 03:35:33;;;;;;;3.22;1.55;;;16.80;99.90;;;;;;4953542;28;20028;-82
2023/08/20 03:37:59;;;;;;;2.45;1.30;;;16.70;99.90;;;;;;4946695;28;20804;-83
2023/08/20 03:40:24;;;;;;;4.05;1.33;;;16.70;99.90;;;;;;4949902;28;20040;-83
2023/08/20 03:42:50;;;;;;;2.53;1.35;;;16.70;99.90;;;;;;4947557;28;20039;-83
2023/08/20 03:45:16;;;;;;;2.17;1.08;;;16.60;99.90;;;;;;4962559;28;20035;-83
2023/08/20 03:47:44;;;;;;;4.00;1.65;;;16.50;99.90;;;;;;4961675;28;21897;-84
2023/08/20 03:50:10;;;;;;;4.88;1.52;;;16.50;99.90;;;;;;4965300;28;20392;-83
2023/08/20 03:52:36;;;;;;;4.28;1.10;;;16.40;99.90;;;;;;4963569;28;20031;-83
2023/08/20 03:55:02;;;;;;;5.05;1.20;;;16.40;99.90;;;;;;4963723;28;20383;-83
2023/08/20 03:57:28;;;;;;;3.05;1.00;;;16.40;99.90;;;;;;4962913;28;20134;-82
2023/08/20 03:59:54;;;;;;;3.55;1.33;;;16.40;99.90;;;;;;4963090;28;20102;-84
2023/08/20 04:02:19;;;;;;;3.38;1.48;;;16.30;99.90;;;;;;4950836;28;20058;-83
2023/08/20 04:04:45;;;;;;;3.03;1.27;;;16.30;99.90;;;;;;4949227;28;20134;-82
2023/08/20 04:07:12;;;;;;;3.85;1.27;;;16.30;99.90;;;;;;4963319;28;20554;-83
2023/08/20 04:09:38;;;;;;;4.47;1.58;;;16.30;99.90;;;;;;4948300;28;20078;-83
2023/08/20 04:12:05;;;;;;;2.88;1.15;;;16.30;99.90;;;;;;4945883;28;20126;-83
2023/08/20 04:14:31;;;;;;;2.13;0.90;;;16.30;99.90;;;;;;4964449;28;20471;-83
2023/08/20 04:16:57;;;;;;;2.35;1.63;;;16.30;99.90;;;;;;4964736;28;20122;-83
2023/08/20 04:19:23;;;;;;;4.50;1.52;;;16.10;99.90;;;;;;4951525;28;20058;-83
2023/08/20 04:21:50;;;;;;;3.85;1.13;;;16.10;99.90;;;;;;4948751;28;20073;-83
2023/08/20 04:24:15;;;;;;;2.53;1.10;;;16.10;99.90;;;;;;4963050;28;20026;-83
2023/08/20 04:26:41;;;;;;;3.47;1.48;;;16.10;99.90;;;;;;4963366;28;20105;-83
2023/08/20 04:29:07;;;;;;;3.10;2.03;;;16.10;99.90;;;;;;4966384;28;20028;-83
2023/08/20 04:31:32;;;;;;;3.15;1.50;;;16.00;99.90;;;;;;4962789;28;20121;-83
2023/08/20 04:34:03;;;;;;;3.90;1.67;;;16.10;99.90;;;;;;4950512;28;20065;-83
2023/08/20 04:36:51;;;;;;;2.60;1.13;;;16.10;99.90;;;;;;4960244;28;20027;-83
2023/08/20 04:39:18;;;;;;;4.50;1.95;;;16.10;99.90;;;;;;4945942;28;20094;-83
2023/08/20 04:41:47;;;;;;;2.00;1.20;;;16.10;99.90;;;;;;4965790;28;20022;-83
2023/08/20 04:44:15;;;;;;;3.70;1.27;;;16.10;99.90;;;;;;4960065;28;20045;-83
2023/08/20 04:46:42;;;;;;;2.58;1.20;;;16.00;99.90;;;;;;4965114;28;20579;-82
2023/08/20 04:49:08;;;;;;;6.57;1.50;;;16.00;99.90;;;;;;4944662;28;20043;-83
2023/08/20 04:51:34;;;;;;;3.65;1.48;;;15.90;99.90;;;;;;4958694;28;20554;-83
2023/08/20 04:54:01;;;;;;;3.53;1.45;;;16.00;99.90;;;;;;4946311;28;20026;-83
2023/08/20 04:56:26;;;;;;;3.80;1.90;;;16.00;99.90;;;;;;4951148;28;20090;-83
2023/08/20 04:58:53;;;;;;;3.30;1.27;;;16.00;99.90;;;;;;4959787;28;20420;-83
2023/08/20 05:01:39;;;;;;;2.40;1.15;;;16.00;99.90;;;;;;4962758;28;20032;-82
2023/08/20 05:04:05;;;;;;;2.45;1.42;;;16.00;99.90;;;;;;4942744;28;20059;-83
2023/08/20 05:06:31;;;;;;;3.30;1.45;;;16.10;99.90;;;;;;4959010;28;20035;-83
2023/08/20 05:08:57;;;;;;;3.15;1.20;;;16.10;99.90;;;;;;4943894;28;20027;-82
2023/08/20 05:11:22;;;;;;;3.65;1.67;;;16.10;99.90;;;;;;4957538;28;20399;-83
2023/08/20 05:13:49;;;;;;;2.53;1.38;;;16.20;99.90;;;;;;4945642;28;20286;-83
2023/08/20 05:16:15;;;;;;;2.33;1.52;;;16.20;99.90;;;;;;4962954;28;20027;-83
2023/08/20 05:18:42;;;;;;;2.63;1.48;;;16.10;99.90;;;;;;4950921;28;20389;-83
2023/08/20 05:21:08;;;;;;;2.92;1.55;;;16.20;99.90;;;;;;4964595;28;20058;-83
2023/08/20 05:23:35;;;;;;;3.92;1.90;;;16.20;99.90;;;;;;4951376;28;20447;-83
2023/08/20 05:26:01;;;;;;;2.72;1.48;;;16.30;99.90;;;;;;4959822;28;20043;-82
2023/08/20 05:28:27;;;;;;;2.20;1.60;;;16.30;99.90;;;;;;4962764;28;20024;-83
2023/08/20 05:30:57;;;;;;;3.00;1.15;;;16.30;99.90;;;;;;4950188;28;20031;-82
2023/08/20 05:33:23;;;;;;;2.80;1.25;;;16.40;99.90;;;;;;4959271;28;20027;-82
2023/08/20 05:35:49;;;;;;;2.55;1.30;;;16.50;99.90;;;;;;4951234;28;20490;-83
2023/08/20 05:38:16;;;;;;;2.60;1.33;;;16.60;99.90;;;;;;4947449;28;20038;-83
2023/08/20 05:40:42;;;;;;;3.28;1.63;;;16.70;99.90;;;;;;4965181;28;20106;-82
2023/08/20 05:43:08;;;;;;;3.22;1.73;;;16.80;99.90;;;;;;4963897;28;20105;-82
2023/08/20 05:45:34;;;;;;;3.75;1.45;;;16.80;99.90;;;;;;4961952;28;20173;-83
2023/08/20 05:47:59;;;;;;;2.50;1.58;;;16.80;99.90;;;;;;4949135;28;20090;-83
2023/08/20 05:50:25;;;;;;;3.15;1.75;;;17.00;99.90;;;;;;4944723;28;20035;-83
2023/08/20 05:52:52;;;;;;;3.22;1.80;;;17.00;99.90;;;;;;4962199;28;20133;-83
2023/08/20 05:55:18;;;;;;;3.10;1.45;;;16.90;99.90;;;;;;4959665;28;20039;-83
2023/08/20 05:57:44;;;;;;;4.03;1.60;;;17.00;99.90;;;;;;4945060;28;20027;-83
2023/08/20 06:00:10;;;;;;;2.95;1.33;;;17.00;99.90;;;;;;4960065;28;20623;-83
2023/08/20 06:02:39;;;;;;;2.77;1.50;;;17.20;99.90;;;;;;4962822;28;20455;-83
2023/08/20 06:05:05;;;;;;;3.65;1.75;;;17.30;99.90;;;;;;4959364;28;20046;-83
2023/08/20 06:07:31;;;;;;;3.30;1.27;;;17.50;99.90;;;;;;4963178;28;20126;-83
2023/08/20 06:09:57;;;;;;;6.60;2.92;;;17.60;99.90;;;;;;4961503;28;20046;-82
2023/08/20 06:12:23;;;;;;;4.45;2.17;;;17.70;99.90;;;;;;4958569;28;20130;-83
2023/08/20 06:14:49;;;;;;;2.92;1.40;;;17.90;99.90;;;;;;4959990;28;20035;-82
2023/08/20 06:17:15;;;;;;;6.80;2.70;;;18.00;99.90;;;;;;4962595;28;20051;-83
2023/08/20 06:19:41;;;;;;;6.82;3.72;;;18.00;99.90;;;;;;4958062;28;20550;-83
2023/08/20 06:22:07;;;;;;;5.80;2.00;;;18.20;99.90;;;;;;4955138;28;20118;-82
2023/08/20 06:24:33;;;;;;;7.30;2.95;;;18.30;99.90;;;;;;4954678;28;20026;-83
2023/08/20 06:26:58;;;;;;;5.03;2.20;;;18.50;99.90;;;;;;4945238;28;20043;-83
2023/08/20 06:29:24;;;;;;;3.95;1.88;;;18.70;99.90;;;;;;4957052;28;20034;-83
2023/08/20 06:31:50;;;;;;;3.78;1.38;;;18.70;99.90;;;;;;4963458;28;20035;-83
2023/08/20 06:34:16;;;;;;;5.03;1.30;;;18.90;99.90;;;;;;4947367;28;20024;-83
2023/08/20 06:36:42;;;;;;;5.80;1.05;;;19.10;99.90;;;;;;4961710;28;20421;-83
2023/08/20 06:39:08;;;;;;;5.15;1.17;;;19.20;99.90;;;;;;4955218;28;20097;-83
2023/08/20 06:41:35;;;;;;;3.03;1.05;;;19.40;99.90;;;;;;4946903;28;20768;-83
2023/08/20 06:44:02;;;;;;;5.88;1.10;;;19.50;99.90;;;;;;4947758;28;20476;-82
2023/08/20 06:46:30;;;;;;;4.30;0.73;;;19.70;99.90;;;;;;4948412;28;20039;-83
2023/08/20 06:48:56;;;;;;;3.20;0.77;;;19.80;99.90;;;;;;4947385;28;20114;-82
2023/08/20 06:51:25;;;;;;;5.38;0.60;;;20.00;99.90;;;;;;4946646;28;20167;-83
2023/08/20 06:53:51;;;;;;;4.28;0.68;;;20.00;99.90;;;;;;4962212;28;20027;-81
2023/08/20 06:56:19;;;;;;;4.68;0.60;;;20.10;99.90;;;;;;4954277;28;20113;-82
2023/08/20 06:58:46;;;;;;;4.97;0.70;;;20.20;99.90;;;;;;4947911;28;20035;-83
2023/08/20 07:01:12;;;;;;;5.30;0.70;;;20.30;99.90;;;;;;4948978;28;20031;-84
2023/08/20 07:03:43;;;;;;;2.70;0.65;;;20.40;99.90;;;;;;4961880;28;20046;-83
2023/08/20 07:06:10;;;;;;;5.18;0.90;;;20.40;99.90;;;;;;4968130;28;20321;-83
2023/08/20 07:08:38;;;;;;;5.28;0.80;;;20.50;99.90;;;;;;4963451;28;20495;-83
2023/08/20 07:11:04;;;;;;;4.00;0.60;;;20.60;99.90;;;;;;4960354;28;20058;-85
2023/08/20 07:13:30;;;;;;;5.97;0.70;;;20.70;99.90;;;;;;4946552;28;20037;-83
2023/08/20 07:15:56;;;;;;;3.60;0.50;;;20.80;99.90;;;;;;4959735;28;20039;-83
2023/08/20 07:18:22;;;;;;;4.22;0.70;;;20.80;99.90;;;;;;4952097;28;20382;-83
2023/08/20 07:20:47;;;;;;;6.43;0.88;;;20.90;99.90;;;;;;4966127;28;20035;-82
2023/08/20 07:23:13;;;;;;;5.07;0.50;;;20.90;99.90;;;;;;4961105;28;20038;-83
2023/08/20 07:25:41;;;;;;;2.35;0.50;;;21.10;99.90;;;;;;4945689;28;20039;-82
2023/08/20 07:28:08;;;;;;;3.28;0.40;;;21.20;99.90;;;;;;4946181;28;20212;-82
2023/08/20 07:30:34;;;;;;;3.55;0.50;;;21.40;99.90;;;;;;4975439;28;20066;-83
2023/08/20 07:33:00;;;;;;;3.17;0.32;;;21.40;99.90;;;;;;4961610;28;20091;-82
2023/08/20 07:35:26;;;;;;;4.18;0.47;;;21.90;99.90;;;;;;4960630;28;20031;-82
2023/08/20 07:37:52;;;;;;;6.22;0.50;;;21.60;99.90;;;;;;4964809;28;20041;-83
2023/08/20 07:40:18;;;;;;;2.53;0.40;;;21.40;99.90;;;;;;4946385;28;20126;-84
2023/08/20 07:42:44;;;;;;;3.83;0.40;;;21.60;99.90;;;;;;4960788;28;20062;-82
2023/08/20 07:45:10;;;;;;;3.35;0.30;;;22.00;99.90;;;;;;4961030;28;20079;-82
2023/08/20 07:47:36;;;;;;;3.35;0.50;;;22.40;99.90;;;;;;4973414;28;20118;-82
2023/08/20 07:50:03;;;;;;;2.03;0.30;;;22.10;99.90;;;;;;4944870;28;20024;-82
2023/08/20 07:52:29;;;;;;;3.95;0.30;;;22.00;99.90;;;;;;4967664;28;20031;-82
2023/08/20 07:54:54;;;;;;;1.80;0.20;;;22.40;99.90;;;;;;4958141;28;20034;-82
2023/08/20 07:57:20;;;;;;;2.50;0.30;;;22.50;99.90;;;;;;4960026;28;20055;-82
2023/08/20 07:59:46;;;;;;;1.02;0.25;;;22.60;99.90;;;;;;4943810;28;20031;-82
2023/08/20 08:02:12;;;;;;;2.38;0.20;;;22.90;99.90;;;;;;4950409;28;20093;-83
2023/08/20 08:04:37;;;;;;;1.88;0.20;;;22.80;99.90;;;;;;4964833;28;20082;-82
2023/08/20 08:07:03;;;;;;;2.25;0.20;;;23.10;99.90;;;;;;4949340;28;20038;-82
2023/08/20 08:09:30;;;;;;;1.08;0.20;;;23.50;99.90;;;;;;4963599;28;20046;-82
2023/08/20 08:11:57;;;;;;;2.55;0.20;;;23.30;99.90;;;;;;4954162;28;20475;-82
2023/08/20 08:14:23;;;;;;;2.88;0.30;;;22.90;99.90;;;;;;4973808;28;20054;-82
2023/08/20 08:16:49;;;;;;;5.00;0.38;;;22.70;99.90;;;;;;4955884;28;20468;-82
2023/08/20 08:19:14;;;;;;;1.65;0.30;;;22.60;99.90;;;;;;4944079;28;20030;-82
2023/08/20 08:21:42;;;;;;;5.47;0.45;;;22.40;99.90;;;;;;4960286;28;20061;-83
2023/08/20 08:24:08;;;;;;;2.08;0.30;;;22.60;99.90;;;;;;4959651;28;20365;-82
2023/08/20 08:26:35;;;;;;;2.13;0.30;;;22.80;99.90;;;;;;4963220;28;20084;-83
2023/08/20 08:29:04;;;;;;;2.13;0.20;;;23.00;99.90;;;;;;4965836;28;20585;-82
2023/08/20 08:31:30;;;;;;;2.75;0.30;;;23.40;99.90;;;;;;4943746;28;20434;-82
2023/08/20 08:33:56;;;;;;;0.77;0.20;;;23.50;99.90;;;;;;4941487;28;20050;-82
2023/08/20 08:36:21;;;;;;;2.50;0.30;;;23.50;99.90;;;;;;4961272;28;20027;-83
2023/08/20 08:38:47;;;;;;;4.55;0.30;;;22.80;99.90;;;;;;4960488;28;20037;-82
2023/08/20 08:41:14;;;;;;;2.47;0.30;;;22.70;99.90;;;;;;4945125;28;20051;-82
2023/08/20 08:43:40;;;;;;;4.38;0.40;;;22.80;99.90;;;;;;4960970;28;20476;-82
2023/08/20 08:46:13;;;;;;;2.67;0.30;;;23.00;99.90;;;;;;4952564;28;20449;-82
2023/08/20 08:48:41;;;;;;;1.95;0.30;;;22.90;99.90;;;;;;4938954;28;20019;-82
2023/08/20 08:51:06;;;;;;;2.95;0.30;;;22.90;99.90;;;;;;4947152;28;20033;-84
2023/08/20 08:53:33;;;;;;;2.63;0.30;;;23.10;99.90;;;;;;4957755;28;20027;-83
2023/08/20 08:55:59;;;;;;;2.15;0.40;;;22.90;99.90;;;;;;4940448;28;20046;-82
2023/08/20 08:58:26;;;;;;;3.13;0.40;;;23.10;99.90;;;;;;4959313;28;20035;-82
2023/08/20 09:00:52;;;;;;;2.90;0.30;;;23.20;99.90;;;;;;4957453;28;20069;-83
2023/08/20 09:03:18;;;;;;;3.22;0.50;;;23.50;99.90;;;;;;4959683;28;20394;-82
2023/08/20 09:05:48;;;;;;;3.53;0.40;;;23.40;99.90;;;;;;4958548;28;20101;-83
2023/08/20 09:08:22;;;;;;;1.63;0.30;;;23.30;99.90;;;;;;4959693;28;20031;-83
2023/08/20 09:10:51;;;;;;;1.77;0.30;;;23.50;99.90;;;;;;4958496;28;20112;-82
2023/08/20 09:13:17;;;;;;;1.88;0.25;;;24.30;99.90;;;;;;4958705;28;20029;-83
2023/08/20 09:15:43;;;;;;;2.88;0.20;;;24.70;99.90;;;;;;4962266;28;20447;-82
2023/08/20 09:18:11;;;;;;;3.50;0.40;;;24.90;99.90;;;;;;4956011;28;20082;-82
2023/08/20 09:20:37;;;;;;;3.35;0.40;;;24.30;99.90;;;;;;4961511;28;20126;-84
2023/08/20 09:23:04;;;;;;;2.55;0.55;;;24.00;99.90;;;;;;4956260;28;20159;-83
2023/08/20 09:25:30;;;;;;;2.90;0.40;;;24.00;99.90;;;;;;4965339;28;20031;-83
2023/08/20 09:27:55;;;;;;;4.30;0.40;;;24.20;99.90;;;;;;4955704;28;20078;-83
2023/08/20 09:30:21;;;;;;;4.60;0.40;;;24.00;99.90;;;;;;4957545;28;20062;-82
2023/08/20 09:33:14;;;;;;;2.60;0.30;;;24.00;99.90;;;;;;4954786;28;20023;-82
2023/08/20 09:35:49;;;;;;;2.78;0.30;;;24.10;99.90;;;;;;4963381;28;20038;-82
2023/08/20 09:38:14;;;;;;;3.10;0.38;;;25.10;99.90;;;;;;4957391;28;20373;-83
2023/08/20 09:40:40;;;;;;;2.88;0.30;;;24.60;99.90;;;;;;4962761;28;20028;-82
2023/08/20 09:43:09;;;;;;;1.88;0.30;;;24.60;99.90;;;;;;4954879;28;20459;-82
2023/08/20 09:45:37;;;;;;;2.38;0.30;;;24.90;99.90;;;;;;4970333;28;20050;-82
2023/08/20 09:48:08;;;;;;;3.15;0.30;;;24.70;99.90;;;;;;4957969;28;20428;-82
2023/08/20 09:50:38;;;;;;;2.13;0.30;;;24.70;99.90;;;;;;4954424;28;20069;-83
2023/08/20 09:53:27;;;;;;;2.28;0.30;;;24.60;99.90;;;;;;4954268;28;20022;-82
2023/08/20 09:55:58;;;;;;;1.67;0.30;;;24.60;99.90;;;;;;4956623;28;20081;-82
2023/08/20 09:58:26;;;;;;;2.67;0.30;;;24.60;99.90;;;;;;4955460;28;20024;-82
2023/08/20 10:00:52;;;;;;;3.78;0.30;;;24.50;99.90;;;;;;4945224;28;20558;-83
2023/08/20 10:03:21;;;;;;;3.00;0.30;;;24.50;99.90;;;;;;4957790;28;20092;-83
2023/08/20 10:05:49;;;;;;;1.17;0.20;;;24.60;99.90;;;;;;4954641;28;20125;-82
2023/08/20 10:08:15;;;;;;;1.95;0.22;;;24.80;99.90;;;;;;4956928;28;20082;-82
2023/08/20 10:10:41;;;;;;;1.10;0.10;;;25.10;99.90;;;;;;4957888;28;20043;-82
2023/08/20 10:13:07;;;;;;;0.40;0.08;;;25.70;99.90;;;;;;4946789;28;20081;-83
2023/08/20 10:15:36;;;;;;;1.65;0.20;;;25.40;99.90;;;;;;4963497;28;20039;-83
2023/08/20 10:18:02;;;;;;;0.70;0.10;;;24.90;99.90;;;;;;4957212;28;20386;-84
2023/08/20 10:20:29;;;;;;;0.38;0.05;;;24.90;99.90;;;;;;4961537;28;20027;-83
2023/08/20 10:23:02;;;;;;;1.63;0.15;;;25.00;99.90;;;;;;4953903;28;20430;-82
2023/08/20 10:25:29;;;;;;;1.00;0.10;;;25.10;99.90;;;;;;4957541;28;20447;-83
2023/08/20 10:28:10;;;;;;;1.23;0.10;;;25.20;99.90;;;;;;4938099;28;20030;-82
2023/08/20 10:30:36;;;;;;;0.40;0.00;;;25.10;99.90;;;;;;4961122;28;20054;-82
2023/08/20 10:33:03;;;;;;;0.70;0.00;;;25.40;99.90;;;;;;4961339;28;20510;-82
2023/08/20 10:35:38;;;;;;;0.75;0.10;;;25.20;99.90;;;;;;4923766;28;20246;-83
2023/08/20 10:38:07;;;;;;;0.90;0.10;;;25.50;99.90;;;;;;4927857;28;20408;-83
2023/08/20 10:40:58;;;;;;;1.05;0.10;;;25.30;99.90;;;;;;4946049;28;20145;-82
2023/08/20 10:43:39;;;;;;;1.02;0.00;;;25.20;99.90;;;;;;4939702;28;20035;-81
2023/08/20 10:46:19;;;;;;;1.70;0.13;;;25.50;99.90;;;;;;4938871;28;20066;-82
2023/08/20 10:48:50;;;;;;;2.22;0.13;;;25.60;99.90;;;;;;4942602;28;20468;-81
2023/08/20 10:51:26;;;;;;;0.98;0.10;;;25.60;99.90;;;;;;4938083;28;20057;-83
2023/08/20 10:54:01;;;;;;;0.38;0.00;;;25.30;99.90;;;;;;4928661;28;20724;-83
2023/08/20 10:56:44;;;;;;;0.22;0.00;;;25.60;99.90;;;;;;4940009;28;20045;-82
2023/08/20 10:59:30;;;;;;;0.88;0.00;;;26.30;99.90;;;;;;4926784;28;20173;-82
2023/08/20 11:01:58;;;;;;;0.75;0.10;;;26.70;99.90;;;;;;4942842;28;20039;-82
2023/08/20 11:04:28;;;;;;;0.75;0.00;;;26.00;99.90;;;;;;4932951;28;20069;-83
2023/08/20 11:06:56;;;;;;;1.10;0.10;;;25.60;99.90;;;;;;4940964;28;20801;-83
2023/08/20 11:09:23;;;;;;;2.22;0.25;;;25.70;99.90;;;;;;4933103;28;20494;-82
2023/08/20 11:11:50;;;;;;;0.95;0.10;;;25.50;99.90;;;;;;4931241;28;20134;-82
2023/08/20 11:14:18;;;;;;;0.55;0.00;;;25.70;99.90;;;;;;4942594;28;20500;-82
2023/08/20 11:16:45;;;;;;;0.85;0.10;;;25.60;99.90;;;;;;4927622;28;20042;-83
2023/08/20 11:19:11;;;;;;;0.95;0.10;;;25.80;99.90;;;;;;4927818;28;20093;-82
2023/08/20 11:21:41;;;;;;;1.42;0.10;;;26.00;99.90;;;;;;4941500;28;20880;-84
2023/08/20 11:24:07;;;;;;;1.20;0.10;;;25.80;99.90;;;;;;4941967;28;20782;-83
2023/08/20 11:26:44;;;;;;;0.90;0.10;;;25.70;99.90;;;;;;4928096;28;20043;-84
2023/08/20 11:29:19;;;;;;;1.70;0.10;;;25.70;99.90;;;;;;4926189;28;20511;-83
2023/08/20 11:31:45;;;;;;;0.90;0.10;;;25.80;99.90;;;;;;4930285;28;20126;-83
2023/08/20 11:34:11;;;;;;;1.00;0.10;;;25.80;99.90;;;;;;4939977;28;20592;-83
2023/08/20 11:36:39;;;;;;;1.45;0.10;;;25.90;99.90;;;;;;4928180;28;20058;-83
2023/08/20 11:39:05;;;;;;;0.80;0.10;;;26.00;99.90;;;;;;4941897;28;20034;-83
2023/08/20 11:41:31;;;;;;;1.42;0.10;;;25.90;99.90;;;;;;4956069;28;20051;-82
2023/08/20 11:43:57;;;;;;;0.75;0.10;;;25.60;99.90;;;;;;4943640;28;20031;-83
2023/08/20 11:46:24;;;;;;;0.73;0.10;;;25.90;99.90;;;;;;4958649;28;20404;-83
2023/08/20 11:49:12;;;;;;;2.15;0.10;;;26.00;99.90;;;;;;4944069;28;20037;-84
2023/08/20 11:51:42;;;;;;;0.77;0.10;;;25.90;99.90;;;;;;4958991;28;20015;-83
2023/08/20 11:54:12;;;;;;;1.35;0.10;;;25.60;99.90;;;;;;4946241;28;20085;-82
2023/08/20 11:56:48;;;;;;;0.80;0.00;;;25.80;99.90;;;;;;4943839;28;20109;-83
2023/08/20 11:59:15;;;;;;;1.52;0.10;;;25.90;99.90;;;;;;4943080;28;20097;-82
2023/08/20 12:01:41;;;;;;;0.90;0.08;;;25.90;99.90;;;;;;4954453;28;20034;-82
2023/08/20 12:04:09;;;;;;;1.95;0.15;;;26.10;99.90;;;;;;4963328;28;20061;-82
2023/08/20 12:06:36;;;;;;;2.72;0.20;;;25.90;99.90;;;;;;4941926;28;20400;-82
2023/08/20 12:09:21;;;;;;;1.20;0.10;;;26.00;99.90;;;;;;4958263;28;20030;-83
2023/08/20 12:11:55;;;;;;;1.63;0.10;;;26.10;99.90;;;;;;4960665;28;20063;-83
2023/08/20 12:14:22;;;;;;;0.90;0.10;;;25.90;99.90;;;;;;4956642;28;20129;-83
2023/08/20 12:16:47;;;;;;;2.58;0.15;;;26.10;99.90;;;;;;4963018;28;20034;-82
2023/08/20 12:19:14;;;;;;;0.90;0.10;;;25.90;99.90;;;;;;4964974;28;20110;-82
2023/08/20 12:21:41;;;;;;;0.77;0.10;;;25.90;99.90;;;;;;4959649;28;20113;-82
2023/08/20 12:24:08;;;;;;;2.35;0.10;;;25.90;99.90;;;;;;4950990;28;20379;-82
2023/08/20 12:26:34;;;;;;;1.38;0.10;;;25.90;99.90;;;;;;4963413;28;20445;-83
2023/08/20 12:28:59;;;;;;;1.67;0.20;;;26.00;99.90;;;;;;4961877;28;20102;-83
2023/08/20 12:31:25;;;;;;;1.05;0.10;;;26.10;99.90;;;;;;4955848;28;20452;-82
2023/08/20 12:33:51;;;;;;;2.28;0.20;;;26.10;99.90;;;;;;4942757;28;20566;-82
2023/08/20 12:36:16;;;;;;;1.20;0.10;;;26.00;99.90;;;;;;4952576;28;20027;-82
2023/08/20 12:38:42;;;;;;;1.35;0.10;;;26.20;99.90;;;;;;4974625;28;20455;-82
2023/08/20 12:41:08;;;;;;;1.13;0.10;;;26.40;99.90;;;;;;4960925;28;20042;-82
2023/08/20 12:43:33;;;;;;;1.35;0.10;;;26.40;99.90;;;;;;4945675;28;20022;-83
2023/08/20 12:45:59;;;;;;;2.25;0.10;;;26.60;99.90;;;;;;4958811;28;20043;-82
2023/08/20 12:48:25;;;;;;;3.20;0.38;;;26.50;99.90;;;;;;4963373;28;20050;-82
2023/08/20 12:50:50;;;;;;;1.50;0.10;;;26.70;99.90;;;;;;4956916;28;20467;-82